Fort Harrison, MT (59636)

9:45 AM MDT on March 28, 2017 (GMT -0600)
West Side / Kessler | | Change Station

Elev 3967 ft 46.61 °N, 112.07 °W | Updated 23 seconds ago

Clear
Clear
42.3 °F
Feels Like 39 °F
N
5.8
Wind Variable Wind from West

Today
High -- | Low -- °F
--% Chance of Precip.
Yesterday
High -- | Low -- °F
Precip. -- in
Pressure 30.25 in
Visibility 10.0 miles
Clouds Few 6000 ft
Windchill 39 °F
Dew Point 24 °F
Humidity 49%
Rainfall 0.00 in
Snow Depth Not available.
7:14 AM 7:52 PM
New Moon, 0% visible
METAR KHLN 281453Z 22003KT 10SM FEW060 05/M03 A3017 RMK AO2 SLP242 T00501033 51008
Pressure 30.25 in
Visibility 10.0 miles
Clouds Few 6000 ft
Windchill 39 °F
Dew Point 24 °F
Humidity 49%
Rainfall 0.00 in
Snow Depth Not available.
7:14 AM 7:52 PM
New Moon, 0% visible
METAR KHLN 281453Z 22003KT 10SM FEW060 05/M03 A3017 RMK AO2 SLP242 T00501033 51008

Get Severe Weather Alerts

Thanks for signing up!

Be on the lookout for a verification email in your inbox.

You'll start receiving the daily forecast at 8 AM.

×

10-Day Weather Forecast

Almanac

Astronomy

Mar. 28, 2017 Rise Set
Actual Time
Civil Twilight
Nautical Twilight
Astronomical Twilight
Moon
Length of Visible Light
Length of Day
Tomorrow will be .
, % of the Moon is Illuminated

Today's Extremes

State Highs State Lows

Community

WunderPhotos

Upload Photos

1,962,540 photos uploaded!

WunderBlog® & News

Nearby

Air Quality

  Air Quality AQ Index Pollutant
Not available.

Snow Depth

Station Depth Elevation

Earthquake Activity

City Distance Mag. Time & Date
Minimum magnitude displayed is 2.5.

Earthquake Activity

City Distance Mag. Time & Date
Minimum magnitude displayed is 2.5.

Coastal Water Temperatures

Place Temperature

Stations

Nearby Weather Stations

Station Location Temp. Windchill Dew Point Humidity Wind Precip. Elev Updated Type
                   

Watches & Warnings

There are currently no watches in effect.